sensor_id;sensor_type;location;lat;lon;timestamp;P1;durP1;ratioP1;P2;durP2;ratioP2
61393;SDS011;48555;50.952;-0.120;2023-03-23T00:01:02;17.15;;;3.80;;
61393;SDS011;48555;50.952;-0.120;2023-03-23T00:03:29;21.33;;;4.20;;
61393;SDS011;48555;50.952;-0.120;2023-03-23T00:05:56;18.58;;;3.53;;
61393;SDS011;48555;50.952;-0.120;2023-03-23T00:08:29;21.90;;;4.68;;
61393;SDS011;48555;50.952;-0.120;2023-03-23T00:10:58;21.55;;;4.32;;
61393;SDS011;48555;50.952;-0.120;2023-03-23T00:13:26;23.20;;;4.18;;
61393;SDS011;48555;50.952;-0.120;2023-03-23T00:15:52;20.38;;;3.95;;
61393;SDS011;48555;50.952;-0.120;2023-03-23T00:18:18;22.10;;;4.10;;
61393;SDS011;48555;50.952;-0.120;2023-03-23T00:20:48;23.45;;;4.95;;
61393;SDS011;48555;50.952;-0.120;2023-03-23T00:23:15;21.00;;;3.78;;
61393;SDS011;48555;50.952;-0.120;2023-03-23T00:25:44;25.70;;;4.93;;
61393;SDS011;48555;50.952;-0.120;2023-03-23T00:28:11;20.42;;;3.90;;
61393;SDS011;48555;50.952;-0.120;2023-03-23T00:30:38;21.05;;;4.05;;
61393;SDS011;48555;50.952;-0.120;2023-03-23T00:33:04;20.33;;;3.95;;
61393;SDS011;48555;50.952;-0.120;2023-03-23T00:35:29;19.73;;;4.18;;
61393;SDS011;48555;50.952;-0.120;2023-03-23T00:37:55;20.33;;;4.03;;
61393;SDS011;48555;50.952;-0.120;2023-03-23T00:40:21;23.30;;;4.55;;
61393;SDS011;48555;50.952;-0.120;2023-03-23T00:42:47;19.23;;;4.50;;
61393;SDS011;48555;50.952;-0.120;2023-03-23T00:45:13;25.48;;;5.40;;
61393;SDS011;48555;50.952;-0.120;2023-03-23T00:47:39;26.58;;;5.05;;
61393;SDS011;48555;50.952;-0.120;2023-03-23T00:50:07;21.88;;;4.75;;
61393;SDS011;48555;50.952;-0.120;2023-03-23T00:52:32;19.73;;;4.35;;
61393;SDS011;48555;50.952;-0.120;2023-03-23T00:54:58;26.27;;;4.45;;
61393;SDS011;48555;50.952;-0.120;2023-03-23T00:57:23;25.73;;;4.80;;
61393;SDS011;48555;50.952;-0.120;2023-03-23T00:59:51;21.73;;;4.68;;
61393;SDS011;48555;50.952;-0.120;2023-03-23T01:02:17;21.45;;;4.47;;
61393;SDS011;48555;50.952;-0.120;2023-03-23T01:04:43;21.77;;;4.80;;
61393;SDS011;48555;50.952;-0.120;2023-03-23T01:07:10;22.85;;;5.07;;
61393;SDS011;48555;50.952;-0.120;2023-03-23T01:09:39;19.95;;;4.22;;
61393;SDS011;48555;50.952;-0.120;2023-03-23T01:12:09;23.52;;;4.55;;
61393;SDS011;48555;50.952;-0.120;2023-03-23T01:14:35;18.65;;;3.92;;
61393;SDS011;48555;50.952;-0.120;2023-03-23T01:17:01;22.85;;;4.07;;
61393;SDS011;48555;50.952;-0.120;2023-03-23T01:19:26;25.42;;;4.40;;
61393;SDS011;48555;50.952;-0.120;2023-03-23T01:21:51;21.38;;;3.85;;
61393;SDS011;48555;50.952;-0.120;2023-03-23T01:24:17;22.25;;;4.60;;
61393;SDS011;48555;50.952;-0.120;2023-03-23T01:26:42;24.23;;;4.90;;
61393;SDS011;48555;50.952;-0.120;2023-03-23T01:29:08;24.52;;;4.40;;
61393;SDS011;48555;50.952;-0.120;2023-03-23T01:31:33;26.02;;;4.82;;
61393;SDS011;48555;50.952;-0.120;2023-03-23T01:34:01;25.88;;;4.95;;
61393;SDS011;48555;50.952;-0.120;2023-03-23T01:36:27;24.88;;;5.13;;
61393;SDS011;48555;50.952;-0.120;2023-03-23T01:38:53;24.85;;;4.40;;
61393;SDS011;48555;50.952;-0.120;2023-03-23T01:41:20;25.65;;;5.20;;
61393;SDS011;48555;50.952;-0.120;2023-03-23T01:43:56;24.42;;;4.28;;
61393;SDS011;48555;50.952;-0.120;2023-03-23T01:46:23;24.45;;;4.57;;
61393;SDS011;48555;50.952;-0.120;2023-03-23T01:48:50;22.98;;;5.07;;
61393;SDS011;48555;50.952;-0.120;2023-03-23T01:51:15;21.08;;;4.22;;
61393;SDS011;48555;50.952;-0.120;2023-03-23T01:54:17;25.15;;;4.05;;
61393;SDS011;48555;50.952;-0.120;2023-03-23T01:56:44;24.52;;;4.80;;
61393;SDS011;48555;50.952;-0.120;2023-03-23T01:59:13;24.25;;;4.88;;
61393;SDS011;48555;50.952;-0.120;2023-03-23T02:01:40;27.63;;;5.03;;
61393;SDS011;48555;50.952;-0.120;2023-03-23T02:04:09;26.48;;;4.63;;
61393;SDS011;48555;50.952;-0.120;2023-03-23T02:06:38;24.15;;;5.22;;
61393;SDS011;48555;50.952;-0.120;2023-03-23T02:09:03;25.85;;;4.80;;
61393;SDS011;48555;50.952;-0.120;2023-03-23T02:11:31;32.00;;;5.38;;
61393;SDS011;48555;50.952;-0.120;2023-03-23T02:13:57;29.40;;;5.60;;
61393;SDS011;48555;50.952;-0.120;2023-03-23T02:16:34;25.25;;;4.35;;
61393;SDS011;48555;50.952;-0.120;2023-03-23T02:30:09;25.33;;;4.78;;
61393;SDS011;48555;50.952;-0.120;2023-03-23T02:38:14;27.95;;;4.78;;
61393;SDS011;48555;50.952;-0.120;2023-03-23T02:40:44;31.67;;;5.55;;
61393;SDS011;48555;50.952;-0.120;2023-03-23T02:43:19;24.75;;;5.25;;
61393;SDS011;48555;50.952;-0.120;2023-03-23T02:45:46;26.00;;;5.00;;
61393;SDS011;48555;50.952;-0.120;2023-03-23T02:48:15;28.67;;;4.70;;
61393;SDS011;48555;50.952;-0.120;2023-03-23T02:50:44;25.20;;;3.95;;
61393;SDS011;48555;50.952;-0.120;2023-03-23T02:53:13;26.02;;;4.75;;
61393;SDS011;48555;50.952;-0.120;2023-03-23T02:55:41;26.88;;;5.18;;
61393;SDS011;48555;50.952;-0.120;2023-03-23T02:58:08;27.70;;;4.47;;
61393;SDS011;48555;50.952;-0.120;2023-03-23T03:00:34;30.83;;;5.22;;
61393;SDS011;48555;50.952;-0.120;2023-03-23T03:03:00;28.02;;;4.85;;
61393;SDS011;48555;50.952;-0.120;2023-03-23T03:10:58;24.23;;;4.30;;
61393;SDS011;48555;50.952;-0.120;2023-03-23T03:13:35;23.15;;;5.50;;
61393;SDS011;48555;50.952;-0.120;2023-03-23T03:21:30;26.23;;;5.35;;
61393;SDS011;48555;50.952;-0.120;2023-03-23T03:23:58;23.63;;;4.88;;
61393;SDS011;48555;50.952;-0.120;2023-03-23T03:26:26;30.50;;;4.80;;
61393;SDS011;48555;50.952;-0.120;2023-03-23T03:28:54;24.25;;;4.57;;
61393;SDS011;48555;50.952;-0.120;2023-03-23T03:31:27;26.88;;;5.13;;
61393;SDS011;48555;50.952;-0.120;2023-03-23T03:33:57;33.03;;;5.65;;
61393;SDS011;48555;50.952;-0.120;2023-03-23T03:36:26;30.40;;;5.70;;
61393;SDS011;48555;50.952;-0.120;2023-03-23T03:38:59;27.88;;;4.60;;
61393;SDS011;48555;50.952;-0.120;2023-03-23T03:41:28;24.60;;;5.03;;
61393;SDS011;48555;50.952;-0.120;2023-03-23T03:43:54;31.27;;;5.25;;
61393;SDS011;48555;50.952;-0.120;2023-03-23T03:46:19;25.55;;;4.50;;
61393;SDS011;48555;50.952;-0.120;2023-03-23T03:48:44;25.73;;;5.13;;
61393;SDS011;48555;50.952;-0.120;2023-03-23T03:51:10;27.67;;;5.00;;
61393;SDS011;48555;50.952;-0.120;2023-03-23T03:53:35;29.85;;;5.40;;
61393;SDS011;48555;50.952;-0.120;2023-03-23T03:56:00;28.75;;;4.85;;
61393;SDS011;48555;50.952;-0.120;2023-03-23T03:58:26;23.52;;;4.25;;
61393;SDS011;48555;50.952;-0.120;2023-03-23T04:01:01;20.83;;;3.50;;
61393;SDS011;48555;50.952;-0.120;2023-03-23T04:03:27;23.90;;;4.43;;
61393;SDS011;48555;50.952;-0.120;2023-03-23T04:05:53;23.80;;;4.00;;
61393;SDS011;48555;50.952;-0.120;2023-03-23T04:08:20;20.75;;;3.47;;
61393;SDS011;48555;50.952;-0.120;2023-03-23T04:10:49;22.52;;;4.57;;
61393;SDS011;48555;50.952;-0.120;2023-03-23T04:13:15;20.05;;;4.03;;
61393;SDS011;48555;50.952;-0.120;2023-03-23T04:15:40;18.90;;;3.38;;
61393;SDS011;48555;50.952;-0.120;2023-03-23T04:18:06;19.20;;;3.10;;
61393;SDS011;48555;50.952;-0.120;2023-03-23T04:20:31;16.70;;;3.20;;
61393;SDS011;48555;50.952;-0.120;2023-03-23T04:22:59;19.65;;;3.22;;
61393;SDS011;48555;50.952;-0.120;2023-03-23T04:25:26;17.50;;;3.15;;
61393;SDS011;48555;50.952;-0.120;2023-03-23T04:27:52;15.93;;;2.90;;
61393;SDS011;48555;50.952;-0.120;2023-03-23T04:30:19;12.73;;;3.22;;
61393;SDS011;48555;50.952;-0.120;2023-03-23T04:32:46;15.10;;;3.55;;
61393;SDS011;48555;50.952;-0.120;2023-03-23T04:35:15;15.20;;;2.90;;
61393;SDS011;48555;50.952;-0.120;2023-03-23T04:37:42;12.60;;;2.70;;
61393;SDS011;48555;50.952;-0.120;2023-03-23T04:40:08;13.52;;;3.03;;
61393;SDS011;48555;50.952;-0.120;2023-03-23T04:42:38;14.80;;;2.22;;
61393;SDS011;48555;50.952;-0.120;2023-03-23T04:45:05;14.63;;;2.60;;
61393;SDS011;48555;50.952;-0.120;2023-03-23T04:47:33;15.73;;;2.97;;
61393;SDS011;48555;50.952;-0.120;2023-03-23T04:50:05;12.90;;;2.47;;
61393;SDS011;48555;50.952;-0.120;2023-03-23T04:52:35;17.80;;;3.10;;
61393;SDS011;48555;50.952;-0.120;2023-03-23T04:55:03;15.50;;;3.28;;
61393;SDS011;48555;50.952;-0.120;2023-03-23T04:57:32;13.82;;;2.80;;
61393;SDS011;48555;50.952;-0.120;2023-03-23T04:59:59;14.43;;;2.80;;
61393;SDS011;48555;50.952;-0.120;2023-03-23T05:02:25;13.18;;;2.83;;
61393;SDS011;48555;50.952;-0.120;2023-03-23T05:04:55;15.25;;;2.80;;
61393;SDS011;48555;50.952;-0.120;2023-03-23T05:07:22;15.75;;;3.25;;
61393;SDS011;48555;50.952;-0.120;2023-03-23T05:09:48;14.23;;;2.72;;
61393;SDS011;48555;50.952;-0.120;2023-03-23T05:12:14;15.00;;;2.80;;
61393;SDS011;48555;50.952;-0.120;2023-03-23T05:14:40;15.48;;;2.70;;
61393;SDS011;48555;50.952;-0.120;2023-03-23T05:17:06;15.57;;;3.33;;
61393;SDS011;48555;50.952;-0.120;2023-03-23T05:19:32;19.65;;;3.33;;
61393;SDS011;48555;50.952;-0.120;2023-03-23T05:21:58;16.95;;;3.30;;
61393;SDS011;48555;50.952;-0.120;2023-03-23T05:24:29;16.42;;;3.30;;
61393;SDS011;48555;50.952;-0.120;2023-03-23T05:26:57;24.20;;;3.92;;
61393;SDS011;48555;50.952;-0.120;2023-03-23T05:29:25;18.65;;;3.88;;
61393;SDS011;48555;50.952;-0.120;2023-03-23T05:31:51;19.52;;;3.55;;
61393;SDS011;48555;50.952;-0.120;2023-03-23T05:34:18;16.92;;;3.10;;
61393;SDS011;48555;50.952;-0.120;2023-03-23T05:36:44;21.55;;;4.50;;
61393;SDS011;48555;50.952;-0.120;2023-03-23T05:39:11;24.58;;;4.63;;
61393;SDS011;48555;50.952;-0.120;2023-03-23T05:41:36;22.98;;;4.40;;
61393;SDS011;48555;50.952;-0.120;2023-03-23T05:44:02;22.25;;;4.00;;
61393;SDS011;48555;50.952;-0.120;2023-03-23T05:46:28;20.98;;;3.78;;
61393;SDS011;48555;50.952;-0.120;2023-03-23T05:48:54;20.17;;;3.50;;
61393;SDS011;48555;50.952;-0.120;2023-03-23T05:51:19;25.67;;;4.30;;
61393;SDS011;48555;50.952;-0.120;2023-03-23T05:53:45;22.30;;;3.65;;
61393;SDS011;48555;50.952;-0.120;2023-03-23T05:56:12;26.58;;;3.97;;
61393;SDS011;48555;50.952;-0.120;2023-03-23T05:58:38;25.40;;;4.60;;
61393;SDS011;48555;50.952;-0.120;2023-03-23T06:01:06;25.98;;;5.30;;
61393;SDS011;48555;50.952;-0.120;2023-03-23T06:03:32;25.05;;;4.53;;
61393;SDS011;48555;50.952;-0.120;2023-03-23T06:06:00;27.23;;;5.10;;
61393;SDS011;48555;50.952;-0.120;2023-03-23T06:08:26;30.35;;;5.97;;
61393;SDS011;48555;50.952;-0.120;2023-03-23T06:10:51;20.30;;;4.10;;
61393;SDS011;48555;50.952;-0.120;2023-03-23T06:13:17;26.85;;;4.47;;
61393;SDS011;48555;50.952;-0.120;2023-03-23T06:15:42;25.88;;;4.93;;
61393;SDS011;48555;50.952;-0.120;2023-03-23T06:18:08;23.92;;;4.22;;
61393;SDS011;48555;50.952;-0.120;2023-03-23T06:20:33;20.55;;;4.78;;
61393;SDS011;48555;50.952;-0.120;2023-03-23T06:23:00;20.77;;;4.22;;
61393;SDS011;48555;50.952;-0.120;2023-03-23T06:25:25;26.95;;;4.28;;
61393;SDS011;48555;50.952;-0.120;2023-03-23T06:27:51;26.58;;;4.80;;
61393;SDS011;48555;50.952;-0.120;2023-03-23T06:30:17;27.58;;;4.45;;
61393;SDS011;48555;50.952;-0.120;2023-03-23T06:32:43;26.90;;;4.07;;
61393;SDS011;48555;50.952;-0.120;2023-03-23T06:35:11;26.42;;;4.57;;
61393;SDS011;48555;50.952;-0.120;2023-03-23T06:37:37;21.65;;;4.43;;
61393;SDS011;48555;50.952;-0.120;2023-03-23T06:40:03;20.60;;;4.10;;
61393;SDS011;48555;50.952;-0.120;2023-03-23T06:42:33;22.83;;;4.40;;
61393;SDS011;48555;50.952;-0.120;2023-03-23T06:44:58;19.70;;;3.65;;
61393;SDS011;48555;50.952;-0.120;2023-03-23T06:47:25;26.08;;;4.10;;
61393;SDS011;48555;50.952;-0.120;2023-03-23T06:49:54;25.77;;;4.75;;
61393;SDS011;48555;50.952;-0.120;2023-03-23T06:52:21;24.38;;;4.32;;
61393;SDS011;48555;50.952;-0.120;2023-03-23T06:54:47;22.00;;;4.18;;
61393;SDS011;48555;50.952;-0.120;2023-03-23T06:57:13;23.02;;;3.83;;
61393;SDS011;48555;50.952;-0.120;2023-03-23T06:59:39;22.65;;;4.60;;
61393;SDS011;48555;50.952;-0.120;2023-03-23T07:02:04;23.45;;;4.93;;
61393;SDS011;48555;50.952;-0.120;2023-03-23T07:04:30;21.33;;;4.03;;
61393;SDS011;48555;50.952;-0.120;2023-03-23T07:06:56;21.40;;;4.10;;
61393;SDS011;48555;50.952;-0.120;2023-03-23T07:09:22;23.98;;;4.32;;
61393;SDS011;48555;50.952;-0.120;2023-03-23T07:11:47;25.58;;;4.32;;
61393;SDS011;48555;50.952;-0.120;2023-03-23T07:14:13;27.85;;;4.43;;
61393;SDS011;48555;50.952;-0.120;2023-03-23T07:16:39;26.98;;;5.80;;
61393;SDS011;48555;50.952;-0.120;2023-03-23T07:19:05;24.13;;;4.28;;
61393;SDS011;48555;50.952;-0.120;2023-03-23T07:21:31;22.10;;;4.13;;
61393;SDS011;48555;50.952;-0.120;2023-03-23T07:23:56;22.13;;;4.10;;
61393;SDS011;48555;50.952;-0.120;2023-03-23T07:26:21;20.80;;;5.07;;
61393;SDS011;48555;50.952;-0.120;2023-03-23T07:28:47;23.90;;;4.50;;
61393;SDS011;48555;50.952;-0.120;2023-03-23T07:31:12;22.60;;;4.45;;
61393;SDS011;48555;50.952;-0.120;2023-03-23T07:33:38;21.95;;;4.30;;
61393;SDS011;48555;50.952;-0.120;2023-03-23T07:36:03;27.40;;;5.10;;
61393;SDS011;48555;50.952;-0.120;2023-03-23T07:38:29;23.23;;;4.05;;
61393;SDS011;48555;50.952;-0.120;2023-03-23T07:40:55;27.58;;;4.80;;
61393;SDS011;48555;50.952;-0.120;2023-03-23T07:43:21;24.73;;;5.00;;
61393;SDS011;48555;50.952;-0.120;2023-03-23T07:45:47;21.63;;;4.05;;
61393;SDS011;48555;50.952;-0.120;2023-03-23T07:48:13;21.27;;;4.90;;
61393;SDS011;48555;50.952;-0.120;2023-03-23T07:50:38;22.10;;;5.05;;
61393;SDS011;48555;50.952;-0.120;2023-03-23T07:53:03;21.80;;;3.90;;
61393;SDS011;48555;50.952;-0.120;2023-03-23T07:55:29;20.10;;;4.65;;
61393;SDS011;48555;50.952;-0.120;2023-03-23T07:57:55;25.50;;;4.45;;
61393;SDS011;48555;50.952;-0.120;2023-03-23T08:00:21;22.25;;;4.40;;
61393;SDS011;48555;50.952;-0.120;2023-03-23T08:02:52;22.30;;;4.63;;
61393;SDS011;48555;50.952;-0.120;2023-03-23T08:05:20;25.65;;;5.15;;
61393;SDS011;48555;50.952;-0.120;2023-03-23T08:07:47;28.75;;;4.60;;
61393;SDS011;48555;50.952;-0.120;2023-03-23T08:10:13;21.17;;;4.40;;
61393;SDS011;48555;50.952;-0.120;2023-03-23T08:12:40;22.05;;;4.40;;
61393;SDS011;48555;50.952;-0.120;2023-03-23T08:15:07;21.25;;;4.50;;
61393;SDS011;48555;50.952;-0.120;2023-03-23T08:17:34;20.70;;;4.25;;
61393;SDS011;48555;50.952;-0.120;2023-03-23T08:20:00;17.05;;;3.80;;
61393;SDS011;48555;50.952;-0.120;2023-03-23T08:22:26;18.63;;;3.95;;
61393;SDS011;48555;50.952;-0.120;2023-03-23T08:24:54;22.45;;;4.13;;
61393;SDS011;48555;50.952;-0.120;2023-03-23T08:27:19;16.95;;;3.92;;
61393;SDS011;48555;50.952;-0.120;2023-03-23T08:29:45;19.58;;;3.88;;
61393;SDS011;48555;50.952;-0.120;2023-03-23T08:32:11;19.73;;;4.43;;
61393;SDS011;48555;50.952;-0.120;2023-03-23T08:34:37;18.00;;;3.85;;
61393;SDS011;48555;50.952;-0.120;2023-03-23T08:37:02;20.48;;;4.10;;
61393;SDS011;48555;50.952;-0.120;2023-03-23T08:39:28;17.90;;;4.00;;
61393;SDS011;48555;50.952;-0.120;2023-03-23T08:41:55;18.88;;;3.83;;
61393;SDS011;48555;50.952;-0.120;2023-03-23T08:44:20;16.25;;;3.88;;
61393;SDS011;48555;50.952;-0.120;2023-03-23T08:46:46;16.67;;;4.00;;
61393;SDS011;48555;50.952;-0.120;2023-03-23T08:49:11;17.38;;;4.00;;
61393;SDS011;48555;50.952;-0.120;2023-03-23T08:51:36;19.70;;;4.28;;
61393;SDS011;48555;50.952;-0.120;2023-03-23T08:54:02;21.33;;;4.13;;
61393;SDS011;48555;50.952;-0.120;2023-03-23T08:56:27;19.70;;;4.30;;
61393;SDS011;48555;50.952;-0.120;2023-03-23T08:58:53;17.75;;;4.03;;
61393;SDS011;48555;50.952;-0.120;2023-03-23T09:01:18;19.27;;;4.25;;
61393;SDS011;48555;50.952;-0.120;2023-03-23T09:03:44;18.02;;;4.22;;
61393;SDS011;48555;50.952;-0.120;2023-03-23T09:06:10;23.17;;;5.10;;
61393;SDS011;48555;50.952;-0.120;2023-03-23T09:08:37;20.48;;;3.42;;
61393;SDS011;48555;50.952;-0.120;2023-03-23T09:11:05;20.73;;;3.95;;
61393;SDS011;48555;50.952;-0.120;2023-03-23T09:13:32;16.58;;;3.50;;
61393;SDS011;48555;50.952;-0.120;2023-03-23T09:15:58;19.42;;;4.32;;
61393;SDS011;48555;50.952;-0.120;2023-03-23T09:18:23;17.60;;;3.92;;
61393;SDS011;48555;50.952;-0.120;2023-03-23T09:20:50;19.90;;;3.90;;
61393;SDS011;48555;50.952;-0.120;2023-03-23T09:23:16;23.05;;;4.47;;
61393;SDS011;48555;50.952;-0.120;2023-03-23T09:25:42;19.30;;;4.63;;
61393;SDS011;48555;50.952;-0.120;2023-03-23T09:28:08;20.13;;;3.90;;
61393;SDS011;48555;50.952;-0.120;2023-03-23T09:30:35;20.88;;;4.35;;
61393;SDS011;48555;50.952;-0.120;2023-03-23T09:33:01;18.63;;;3.85;;
61393;SDS011;48555;50.952;-0.120;2023-03-23T09:35:28;22.02;;;4.85;;
61393;SDS011;48555;50.952;-0.120;2023-03-23T09:37:56;21.83;;;4.43;;
61393;SDS011;48555;50.952;-0.120;2023-03-23T09:40:22;24.02;;;4.53;;
61393;SDS011;48555;50.952;-0.120;2023-03-23T09:50:41;24.75;;;5.15;;
61393;SDS011;48555;50.952;-0.120;2023-03-23T09:53:16;22.33;;;4.10;;
61393;SDS011;48555;50.952;-0.120;2023-03-23T09:55:46;18.13;;;4.13;;
61393;SDS011;48555;50.952;-0.120;2023-03-23T10:01:14;19.63;;;4.32;;
61393;SDS011;48555;50.952;-0.120;2023-03-23T10:03:45;17.85;;;4.10;;
61393;SDS011;48555;50.952;-0.120;2023-03-23T10:06:13;19.92;;;3.75;;
61393;SDS011;48555;50.952;-0.120;2023-03-23T10:08:52;20.15;;;3.85;;
61393;SDS011;48555;50.952;-0.120;2023-03-23T10:16:50;16.35;;;3.80;;
61393;SDS011;48555;50.952;-0.120;2023-03-23T10:19:35;20.45;;;4.53;;
61393;SDS011;48555;50.952;-0.120;2023-03-23T10:22:09;21.88;;;4.15;;
61393;SDS011;48555;50.952;-0.120;2023-03-23T10:24:41;17.65;;;4.38;;
61393;SDS011;48555;50.952;-0.120;2023-03-23T10:30:25;20.05;;;4.47;;
61393;SDS011;48555;50.952;-0.120;2023-03-23T10:32:56;18.30;;;3.83;;
61393;SDS011;48555;50.952;-0.120;2023-03-23T10:35:28;17.02;;;3.85;;
61393;SDS011;48555;50.952;-0.120;2023-03-23T10:38:02;18.45;;;4.22;;
61393;SDS011;48555;50.952;-0.120;2023-03-23T10:40:31;22.65;;;4.68;;
61393;SDS011;48555;50.952;-0.120;2023-03-23T10:43:00;21.15;;;4.90;;
61393;SDS011;48555;50.952;-0.120;2023-03-23T10:45:27;17.30;;;5.25;;
61393;SDS011;48555;50.952;-0.120;2023-03-23T10:50:34;21.33;;;4.78;;
61393;SDS011;48555;50.952;-0.120;2023-03-23T10:53:03;21.35;;;4.80;;
61393;SDS011;48555;50.952;-0.120;2023-03-23T10:55:38;16.60;;;3.92;;
61393;SDS011;48555;50.952;-0.120;2023-03-23T10:58:07;21.80;;;3.97;;
61393;SDS011;48555;50.952;-0.120;2023-03-23T11:00:43;23.25;;;4.78;;
61393;SDS011;48555;50.952;-0.120;2023-03-23T11:05:42;21.50;;;4.20;;
61393;SDS011;48555;50.952;-0.120;2023-03-23T11:08:22;21.20;;;5.05;;
61393;SDS011;48555;50.952;-0.120;2023-03-23T11:10:54;19.90;;;4.88;;
61393;SDS011;48555;50.952;-0.120;2023-03-23T11:13:22;19.42;;;4.30;;
61393;SDS011;48555;50.952;-0.120;2023-03-23T11:15:50;16.33;;;3.72;;
61393;SDS011;48555;50.952;-0.120;2023-03-23T11:18:20;19.40;;;4.45;;
61393;SDS011;48555;50.952;-0.120;2023-03-23T11:20:49;23.40;;;4.80;;
61393;SDS011;48555;50.952;-0.120;2023-03-23T11:23:21;20.73;;;4.97;;
61393;SDS011;48555;50.952;-0.120;2023-03-23T11:25:57;20.15;;;4.40;;
61393;SDS011;48555;50.952;-0.120;2023-03-23T11:28:44;21.80;;;4.57;;
61393;SDS011;48555;50.952;-0.120;2023-03-23T11:31:15;21.88;;;4.20;;
61393;SDS011;48555;50.952;-0.120;2023-03-23T11:33:49;23.77;;;4.53;;
61393;SDS011;48555;50.952;-0.120;2023-03-23T11:36:19;21.92;;;4.28;;
61393;SDS011;48555;50.952;-0.120;2023-03-23T11:38:45;27.20;;;5.00;;
61393;SDS011;48555;50.952;-0.120;2023-03-23T11:41:11;20.15;;;4.35;;
61393;SDS011;48555;50.952;-0.120;2023-03-23T11:43:39;19.38;;;4.40;;
61393;SDS011;48555;50.952;-0.120;2023-03-23T11:46:11;22.70;;;4.18;;
61393;SDS011;48555;50.952;-0.120;2023-03-23T11:48:46;21.83;;;4.90;;
61393;SDS011;48555;50.952;-0.120;2023-03-23T11:51:17;23.70;;;5.07;;
61393;SDS011;48555;50.952;-0.120;2023-03-23T11:56:42;20.75;;;5.05;;
61393;SDS011;48555;50.952;-0.120;2023-03-23T11:59:13;20.85;;;4.82;;
61393;SDS011;48555;50.952;-0.120;2023-03-23T12:01:50;24.42;;;4.65;;
61393;SDS011;48555;50.952;-0.120;2023-03-23T12:07:46;20.80;;;4.70;;
61393;SDS011;48555;50.952;-0.120;2023-03-23T12:10:34;20.55;;;4.30;;
61393;SDS011;48555;50.952;-0.120;2023-03-23T12:16:44;23.55;;;4.93;;
61393;SDS011;48555;50.952;-0.120;2023-03-23T12:19:36;18.50;;;4.13;;
61393;SDS011;48555;50.952;-0.120;2023-03-23T12:24:35;19.75;;;4.72;;
61393;SDS011;48555;50.952;-0.120;2023-03-23T12:27:35;23.85;;;4.68;;
61393;SDS011;48555;50.952;-0.120;2023-03-23T12:30:16;17.23;;;4.00;;
61393;SDS011;48555;50.952;-0.120;2023-03-23T12:35:41;21.80;;;5.13;;
61393;SDS011;48555;50.952;-0.120;2023-03-23T12:41:01;21.00;;;4.13;;
61393;SDS011;48555;50.952;-0.120;2023-03-23T12:43:47;15.20;;;3.80;;
61393;SDS011;48555;50.952;-0.120;2023-03-23T12:48:52;15.20;;;3.58;;
61393;SDS011;48555;50.952;-0.120;2023-03-23T12:51:31;16.30;;;3.22;;
61393;SDS011;48555;50.952;-0.120;2023-03-23T12:56:47;17.52;;;3.40;;
61393;SDS011;48555;50.952;-0.120;2023-03-23T13:02:03;16.63;;;3.30;;
61393;SDS011;48555;50.952;-0.120;2023-03-23T13:04:38;13.95;;;2.75;;
61393;SDS011;48555;50.952;-0.120;2023-03-23T13:07:10;9.65;;;2.50;;
61393;SDS011;48555;50.952;-0.120;2023-03-23T13:12:13;8.50;;;2.00;;
61393;SDS011;48555;50.952;-0.120;2023-03-23T13:17:44;12.40;;;2.80;;
61393;SDS011;48555;50.952;-0.120;2023-03-23T13:23:17;16.73;;;3.90;;
61393;SDS011;48555;50.952;-0.120;2023-03-23T13:25:54;17.40;;;3.83;;
61393;SDS011;48555;50.952;-0.120;2023-03-23T13:28:28;19.70;;;4.10;;
61393;SDS011;48555;50.952;-0.120;2023-03-23T13:31:00;20.85;;;3.88;;
61393;SDS011;48555;50.952;-0.120;2023-03-23T13:33:28;22.35;;;4.60;;
61393;SDS011;48555;50.952;-0.120;2023-03-23T13:35:55;19.05;;;4.05;;
61393;SDS011;48555;50.952;-0.120;2023-03-23T13:38:25;19.77;;;4.72;;
61393;SDS011;48555;50.952;-0.120;2023-03-23T13:40:55;25.70;;;4.30;;
61393;SDS011;48555;50.952;-0.120;2023-03-23T13:43:25;20.30;;;4.72;;
61393;SDS011;48555;50.952;-0.120;2023-03-23T13:46:06;20.63;;;4.25;;
61393;SDS011;48555;50.952;-0.120;2023-03-23T13:48:45;22.02;;;4.30;;
61393;SDS011;48555;50.952;-0.120;2023-03-23T13:51:26;24.83;;;4.50;;
61393;SDS011;48555;50.952;-0.120;2023-03-23T13:54:03;19.88;;;5.03;;
61393;SDS011;48555;50.952;-0.120;2023-03-23T13:56:59;21.20;;;4.68;;
61393;SDS011;48555;50.952;-0.120;2023-03-23T13:59:46;20.08;;;4.25;;
61393;SDS011;48555;50.952;-0.120;2023-03-23T14:11:11;21.08;;;4.32;;
61393;SDS011;48555;50.952;-0.120;2023-03-23T14:13:16;19.77;;;4.20;;
61393;SDS011;48555;50.952;-0.120;2023-03-23T14:18:58;19.63;;;3.97;;
61393;SDS011;48555;50.952;-0.120;2023-03-23T14:21:36;21.88;;;4.78;;
61393;SDS011;48555;50.952;-0.120;2023-03-23T14:24:50;21.02;;;4.30;;
61393;SDS011;48555;50.952;-0.120;2023-03-23T14:27:01;21.30;;;4.22;;
61393;SDS011;48555;50.952;-0.120;2023-03-23T14:29:37;18.80;;;4.72;;
61393;SDS011;48555;50.952;-0.120;2023-03-23T14:32:05;19.73;;;4.45;;
61393;SDS011;48555;50.952;-0.120;2023-03-23T14:34:32;23.77;;;5.47;;
61393;SDS011;48555;50.952;-0.120;2023-03-23T14:36:59;22.92;;;4.82;;
61393;SDS011;48555;50.952;-0.120;2023-03-23T14:39:26;20.52;;;4.43;;
61393;SDS011;48555;50.952;-0.120;2023-03-23T14:41:55;20.27;;;4.18;;
61393;SDS011;48555;50.952;-0.120;2023-03-23T14:44:29;20.13;;;4.22;;
61393;SDS011;48555;50.952;-0.120;2023-03-23T14:46:56;25.23;;;4.40;;
61393;SDS011;48555;50.952;-0.120;2023-03-23T14:49:27;21.33;;;4.55;;
61393;SDS011;48555;50.952;-0.120;2023-03-23T14:52:14;19.30;;;4.10;;
61393;SDS011;48555;50.952;-0.120;2023-03-23T14:54:41;21.13;;;3.95;;
61393;SDS011;48555;50.952;-0.120;2023-03-23T14:57:13;20.88;;;4.60;;
61393;SDS011;48555;50.952;-0.120;2023-03-23T14:59:41;20.88;;;4.30;;
61393;SDS011;48555;50.952;-0.120;2023-03-23T15:02:10;23.45;;;4.93;;
61393;SDS011;48555;50.952;-0.120;2023-03-23T15:04:40;20.95;;;4.68;;
61393;SDS011;48555;50.952;-0.120;2023-03-23T15:07:08;21.55;;;3.85;;
61393;SDS011;48555;50.952;-0.120;2023-03-23T15:09:35;24.38;;;5.10;;
61393;SDS011;48555;50.952;-0.120;2023-03-23T15:12:05;23.67;;;4.60;;
61393;SDS011;48555;50.952;-0.120;2023-03-23T15:14:47;19.33;;;4.38;;
61393;SDS011;48555;50.952;-0.120;2023-03-23T15:17:23;22.83;;;4.15;;
61393;SDS011;48555;50.952;-0.120;2023-03-23T15:19:51;19.67;;;3.92;;
61393;SDS011;48555;50.952;-0.120;2023-03-23T15:22:25;23.38;;;4.30;;
61393;SDS011;48555;50.952;-0.120;2023-03-23T15:25:29;27.73;;;5.32;;
61393;SDS011;48555;50.952;-0.120;2023-03-23T15:27:54;20.88;;;4.07;;
61393;SDS011;48555;50.952;-0.120;2023-03-23T15:30:47;18.80;;;4.45;;
61393;SDS011;48555;50.952;-0.120;2023-03-23T15:33:18;20.15;;;3.92;;
61393;SDS011;48555;50.952;-0.120;2023-03-23T15:35:48;19.63;;;3.90;;
61393;SDS011;48555;50.952;-0.120;2023-03-23T15:38:20;22.50;;;3.70;;
61393;SDS011;48555;50.952;-0.120;2023-03-23T15:40:48;19.60;;;4.05;;
61393;SDS011;48555;50.952;-0.120;2023-03-23T15:43:16;19.63;;;4.25;;
61393;SDS011;48555;50.952;-0.120;2023-03-23T15:45:58;19.67;;;4.47;;
61393;SDS011;48555;50.952;-0.120;2023-03-23T15:48:46;16.40;;;3.88;;
61393;SDS011;48555;50.952;-0.120;2023-03-23T15:51:12;17.67;;;4.32;;
61393;SDS011;48555;50.952;-0.120;2023-03-23T15:53:38;22.58;;;4.18;;
61393;SDS011;48555;50.952;-0.120;2023-03-23T15:56:05;17.60;;;4.20;;
61393;SDS011;48555;50.952;-0.120;2023-03-23T15:58:32;18.70;;;3.50;;
61393;SDS011;48555;50.952;-0.120;2023-03-23T16:00:59;17.10;;;3.90;;
61393;SDS011;48555;50.952;-0.120;2023-03-23T16:03:31;15.18;;;3.28;;
61393;SDS011;48555;50.952;-0.120;2023-03-23T16:06:02;16.05;;;3.67;;
61393;SDS011;48555;50.952;-0.120;2023-03-23T16:08:28;16.05;;;3.58;;
61393;SDS011;48555;50.952;-0.120;2023-03-23T16:10:53;24.55;;;4.60;;